Terminal Aerodrome Forecast
Issued by NWS

Home | Current Version | Previous Version | Text Only | Print | Product List | Glossary On
Versions: 1 2 3 4 5 6 7 8 9 10 11 12 13 14 15 16 17 18 19
000
FTUS46 KLOX 241100
TAFSBP
TAF
KSBP 241136Z 2412/2512 33010KT P6SM SKC
     FM242000 31020G30KT P6SM SCT200
     FM250200 32012KT P6SM SCT200
     FM250500 30006KT P6SM SCT200
     FM251000 VRB03KT P6SM BKN012 BKN200=

USA.gov is the U.S. government's official web portal to all federal, state and local government web resources and services.